Terminal Aerodrome Forecast
Issued by NWS Duluth, MN

Home | Current Version | Previous Version | Text Only | Print | Product List | Glossary On
Versions: 1 2 3 4 5 6 7 8 9 10 11 12 13 14 15 16 17 18 19 20 21 22 23 24 25
000
FTUS43 KDLH 281527 AAE
TAFINL
TAF AMD
KINL 281527Z 2815/2912 21006KT P6SM VCSH OVC006
      TEMPO 2816/2818 3SM TSRA OVC006CB
     FM281800 21007KT P6SM VCSH SCT040 BKN100
     FM282100 23008KT P6SM -TSRA SCT020 OVC040CB
      TEMPO 2821/2901 3SM TSRA BKN020CB OVC040
     FM290500 VRB03KT P6SM SCT040=

USA.gov is the U.S. government's official web portal to all federal, state and local government web resources and services.